Terminal Aerodrome Forecast
Issued by NWS

Home | Current Version | Previous Version | Text Only | Print | Product List | Glossary On
Versions: 1 2 3 4 5 6 7 8 9 10 11 12 13 14 15 16 17
513
FTUS43 KEAX 241723
TAFMKC
TAF
KMKC 241723Z 2418/2518 23010KT P6SM VCTS SCT050CB BKN090
      TEMPO 2418/2421 6SM RA BR BKN040
     FM242200 24014G24KT P6SM SCT050 BKN120
     FM250200 26006KT P6SM VCTS BKN040CB
      TEMPO 2503/2507 3SM +TSRA BR BKN035CB
     FM250900 33004KT P6SM BKN035=

USA.gov is the U.S. government's official web portal to all federal, state and local government web resources and services.